Bishopston, United Kingdom
Current Conditions -  °F | °C
As of 5:50 PM on Friday 21 Nov 2014 (Local Time) from EGOP Reporting Station
Broken Clouds Broken Clouds  
Wind Chill: 50°   Ceiling: 3500
Heat Index: 50°   Visibility: 4mi
Dew Point: 50°   Wind: 20mph
Humidity: 100%   Direction: 120°ESE
Pressure: 29.8"   Gusts: NA
Location:  51.58°N, 4.05°W
Report Text: EGOP 211750Z AUTO 12017KT 6000 // FEW004/// BKN035/// 10/10 Q1009
Loading
Personal Weather Stations






























Interactive Weather Map New forecast layout! Learn more

10-Day Weather Forecast

Advertisements
Track Severe Weather on mobile